sensor_id;sensor_type;location;lat;lon;timestamp;P1;durP1;ratioP1;P2;durP2;ratioP2
1591;SDS011;789;51.612;7.510;2023-08-12T00:01:54;21.37;;;16.50;;
1591;SDS011;789;51.612;7.510;2023-08-12T00:04:21;17.80;;;15.90;;
1591;SDS011;789;51.612;7.510;2023-08-12T00:06:48;19.50;;;16.10;;
1591;SDS011;789;51.612;7.510;2023-08-12T00:09:15;18.50;;;16.70;;
1591;SDS011;789;51.612;7.510;2023-08-12T00:11:43;18.27;;;16.57;;
1591;SDS011;789;51.612;7.510;2023-08-12T00:14:10;19.10;;;16.67;;
1591;SDS011;789;51.612;7.510;2023-08-12T00:16:38;18.40;;;16.40;;
1591;SDS011;789;51.612;7.510;2023-08-12T00:19:04;17.40;;;15.90;;
1591;SDS011;789;51.612;7.510;2023-08-12T00:21:33;17.73;;;15.77;;
1591;SDS011;789;51.612;7.510;2023-08-12T00:24:03;20.57;;;16.73;;
1591;SDS011;789;51.612;7.510;2023-08-12T00:26:30;18.53;;;16.60;;
1591;SDS011;789;51.612;7.510;2023-08-12T00:28:58;19.90;;;17.30;;
1591;SDS011;789;51.612;7.510;2023-08-12T00:31:25;19.60;;;17.50;;
1591;SDS011;789;51.612;7.510;2023-08-12T00:33:53;19.90;;;17.90;;
1591;SDS011;789;51.612;7.510;2023-08-12T00:36:20;18.93;;;16.93;;
1591;SDS011;789;51.612;7.510;2023-08-12T00:38:47;19.67;;;17.63;;
1591;SDS011;789;51.612;7.510;2023-08-12T00:41:15;18.93;;;17.13;;
1591;SDS011;789;51.612;7.510;2023-08-12T00:43:42;18.63;;;16.73;;
1591;SDS011;789;51.612;7.510;2023-08-12T00:46:09;21.43;;;18.77;;
1591;SDS011;789;51.612;7.510;2023-08-12T00:48:35;19.77;;;17.73;;
1591;SDS011;789;51.612;7.510;2023-08-12T00:51:04;17.53;;;15.80;;
1591;SDS011;789;51.612;7.510;2023-08-12T00:53:31;19.23;;;17.37;;
1591;SDS011;789;51.612;7.510;2023-08-12T00:55:58;17.50;;;15.93;;
1591;SDS011;789;51.612;7.510;2023-08-12T00:58:24;18.83;;;17.10;;
1591;SDS011;789;51.612;7.510;2023-08-12T01:00:51;19.37;;;17.10;;
1591;SDS011;789;51.612;7.510;2023-08-12T01:03:18;18.83;;;17.07;;
1591;SDS011;789;51.612;7.510;2023-08-12T01:05:46;18.23;;;16.37;;
1591;SDS011;789;51.612;7.510;2023-08-12T01:08:14;19.40;;;17.73;;
1591;SDS011;789;51.612;7.510;2023-08-12T01:10:44;20.73;;;18.73;;
1591;SDS011;789;51.612;7.510;2023-08-12T01:13:19;20.10;;;18.20;;
1591;SDS011;789;51.612;7.510;2023-08-12T01:15:56;19.63;;;17.83;;
1591;SDS011;789;51.612;7.510;2023-08-12T01:18:29;20.87;;;18.77;;
1591;SDS011;789;51.612;7.510;2023-08-12T01:20:56;21.60;;;19.50;;
1591;SDS011;789;51.612;7.510;2023-08-12T01:23:25;22.90;;;20.50;;
1591;SDS011;789;51.612;7.510;2023-08-12T01:25:52;21.70;;;19.90;;
1591;SDS011;789;51.612;7.510;2023-08-12T01:28:19;22.93;;;21.00;;
1591;SDS011;789;51.612;7.510;2023-08-12T01:30:50;24.00;;;21.70;;
1591;SDS011;789;51.612;7.510;2023-08-12T01:33:24;25.97;;;23.20;;
1591;SDS011;789;51.612;7.510;2023-08-12T01:36:08;24.23;;;22.00;;
1591;SDS011;789;51.612;7.510;2023-08-12T01:38:40;22.63;;;20.43;;
1591;SDS011;789;51.612;7.510;2023-08-12T01:41:11;24.07;;;21.47;;
1591;SDS011;789;51.612;7.510;2023-08-12T01:43:41;22.93;;;20.73;;
1591;SDS011;789;51.612;7.510;2023-08-12T01:46:08;20.43;;;18.73;;
1591;SDS011;789;51.612;7.510;2023-08-12T01:48:35;21.10;;;19.17;;
1591;SDS011;789;51.612;7.510;2023-08-12T01:51:02;25.70;;;23.40;;
1591;SDS011;789;51.612;7.510;2023-08-12T01:53:29;22.83;;;20.73;;
1591;SDS011;789;51.612;7.510;2023-08-12T01:55:57;23.07;;;21.03;;
1591;SDS011;789;51.612;7.510;2023-08-12T01:58:24;21.40;;;19.50;;
1591;SDS011;789;51.612;7.510;2023-08-12T02:00:52;21.13;;;18.93;;
1591;SDS011;789;51.612;7.510;2023-08-12T02:03:19;22.30;;;20.03;;
1591;SDS011;789;51.612;7.510;2023-08-12T02:05:46;23.70;;;21.43;;
1591;SDS011;789;51.612;7.510;2023-08-12T02:08:12;22.23;;;20.13;;
1591;SDS011;789;51.612;7.510;2023-08-12T02:10:39;23.20;;;21.00;;
1591;SDS011;789;51.612;7.510;2023-08-12T02:13:10;23.77;;;21.37;;
1591;SDS011;789;51.612;7.510;2023-08-12T02:15:39;24.23;;;21.70;;
1591;SDS011;789;51.612;7.510;2023-08-12T02:18:05;24.67;;;22.20;;
1591;SDS011;789;51.612;7.510;2023-08-12T02:20:32;24.80;;;22.50;;
1591;SDS011;789;51.612;7.510;2023-08-12T02:23:01;26.90;;;24.30;;
1591;SDS011;789;51.612;7.510;2023-08-12T02:25:27;25.60;;;23.00;;
1591;SDS011;789;51.612;7.510;2023-08-12T02:27:57;27.43;;;24.63;;
1591;SDS011;789;51.612;7.510;2023-08-12T02:30:25;26.87;;;24.23;;
1591;SDS011;789;51.612;7.510;2023-08-12T02:32:52;25.60;;;23.47;;
1591;SDS011;789;51.612;7.510;2023-08-12T02:35:20;28.60;;;25.90;;
1591;SDS011;789;51.612;7.510;2023-08-12T02:37:47;29.00;;;26.20;;
1591;SDS011;789;51.612;7.510;2023-08-12T02:40:14;29.03;;;26.20;;
1591;SDS011;789;51.612;7.510;2023-08-12T02:42:41;30.33;;;27.53;;
1591;SDS011;789;51.612;7.510;2023-08-12T02:45:08;29.90;;;27.10;;
1591;SDS011;789;51.612;7.510;2023-08-12T02:47:36;29.63;;;26.90;;
1591;SDS011;789;51.612;7.510;2023-08-12T02:50:03;29.53;;;26.40;;
1591;SDS011;789;51.612;7.510;2023-08-12T02:52:31;30.20;;;27.20;;
1591;SDS011;789;51.612;7.510;2023-08-12T02:54:58;29.30;;;25.83;;
1591;SDS011;789;51.612;7.510;2023-08-12T02:57:27;30.90;;;27.80;;
1591;SDS011;789;51.612;7.510;2023-08-12T02:59:55;30.07;;;26.97;;
1591;SDS011;789;51.612;7.510;2023-08-12T03:02:21;28.63;;;25.73;;
1591;SDS011;789;51.612;7.510;2023-08-12T03:04:50;27.70;;;25.23;;
1591;SDS011;789;51.612;7.510;2023-08-12T03:07:20;28.20;;;25.43;;
1591;SDS011;789;51.612;7.510;2023-08-12T03:09:47;28.27;;;25.47;;
1591;SDS011;789;51.612;7.510;2023-08-12T03:12:15;29.27;;;26.47;;
1591;SDS011;789;51.612;7.510;2023-08-12T03:14:44;29.30;;;26.50;;
1591;SDS011;789;51.612;7.510;2023-08-12T03:17:11;27.17;;;24.63;;
1591;SDS011;789;51.612;7.510;2023-08-12T03:19:39;29.40;;;26.47;;
1591;SDS011;789;51.612;7.510;2023-08-12T03:22:07;28.97;;;26.07;;
1591;SDS011;789;51.612;7.510;2023-08-12T03:24:34;28.00;;;25.30;;
1591;SDS011;789;51.612;7.510;2023-08-12T03:27:03;27.60;;;25.03;;
1591;SDS011;789;51.612;7.510;2023-08-12T03:29:30;26.83;;;24.37;;
1591;SDS011;789;51.612;7.510;2023-08-12T03:31:57;27.00;;;24.40;;
1591;SDS011;789;51.612;7.510;2023-08-12T03:34:27;27.70;;;25.00;;
1591;SDS011;789;51.612;7.510;2023-08-12T03:36:54;29.20;;;26.30;;
1591;SDS011;789;51.612;7.510;2023-08-12T03:39:22;29.00;;;25.17;;
1591;SDS011;789;51.612;7.510;2023-08-12T03:41:49;27.43;;;24.87;;
1591;SDS011;789;51.612;7.510;2023-08-12T03:44:18;31.03;;;27.83;;
1591;SDS011;789;51.612;7.510;2023-08-12T03:46:45;29.20;;;26.20;;
1591;SDS011;789;51.612;7.510;2023-08-12T03:49:11;31.83;;;28.67;;
1591;SDS011;789;51.612;7.510;2023-08-12T03:51:39;32.03;;;28.60;;
1591;SDS011;789;51.612;7.510;2023-08-12T03:54:05;31.60;;;28.50;;
1591;SDS011;789;51.612;7.510;2023-08-12T03:56:34;30.80;;;28.00;;
1591;SDS011;789;51.612;7.510;2023-08-12T03:59:00;30.17;;;27.10;;
1591;SDS011;789;51.612;7.510;2023-08-12T04:01:27;30.30;;;27.40;;
1591;SDS011;789;51.612;7.510;2023-08-12T04:03:54;30.23;;;27.17;;
1591;SDS011;789;51.612;7.510;2023-08-12T04:06:21;29.50;;;26.70;;
1591;SDS011;789;51.612;7.510;2023-08-12T04:08:48;28.77;;;25.97;;
1591;SDS011;789;51.612;7.510;2023-08-12T04:11:15;29.80;;;26.70;;
1591;SDS011;789;51.612;7.510;2023-08-12T04:13:43;29.73;;;27.03;;
1591;SDS011;789;51.612;7.510;2023-08-12T04:16:11;29.07;;;26.23;;
1591;SDS011;789;51.612;7.510;2023-08-12T04:18:38;28.13;;;25.63;;
1591;SDS011;789;51.612;7.510;2023-08-12T04:21:05;30.33;;;27.40;;
1591;SDS011;789;51.612;7.510;2023-08-12T04:23:32;29.57;;;26.87;;
1591;SDS011;789;51.612;7.510;2023-08-12T04:25:59;32.43;;;29.33;;
1591;SDS011;789;51.612;7.510;2023-08-12T04:28:26;28.10;;;25.43;;
1591;SDS011;789;51.612;7.510;2023-08-12T04:30:54;29.07;;;26.30;;
1591;SDS011;789;51.612;7.510;2023-08-12T04:33:20;27.90;;;25.30;;
1591;SDS011;789;51.612;7.510;2023-08-12T04:35:48;28.83;;;25.93;;
1591;SDS011;789;51.612;7.510;2023-08-12T04:38:15;27.97;;;25.47;;
1591;SDS011;789;51.612;7.510;2023-08-12T04:40:44;29.37;;;26.50;;
1591;SDS011;789;51.612;7.510;2023-08-12T04:43:13;29.60;;;26.83;;
1591;SDS011;789;51.612;7.510;2023-08-12T04:45:40;27.40;;;25.00;;
1591;SDS011;789;51.612;7.510;2023-08-12T04:48:12;28.13;;;25.53;;
1591;SDS011;789;51.612;7.510;2023-08-12T04:50:39;28.10;;;25.50;;
1591;SDS011;789;51.612;7.510;2023-08-12T04:53:07;27.17;;;24.47;;
1591;SDS011;789;51.612;7.510;2023-08-12T04:55:34;28.40;;;25.60;;
1591;SDS011;789;51.612;7.510;2023-08-12T04:58:01;27.47;;;24.97;;
1591;SDS011;789;51.612;7.510;2023-08-12T05:00:29;28.10;;;25.50;;
1591;SDS011;789;51.612;7.510;2023-08-12T05:02:56;24.13;;;22.10;;
1591;SDS011;789;51.612;7.510;2023-08-12T05:05:25;25.60;;;23.00;;
1591;SDS011;789;51.612;7.510;2023-08-12T05:07:55;27.57;;;25.07;;
1591;SDS011;789;51.612;7.510;2023-08-12T05:10:21;25.77;;;23.07;;
1591;SDS011;789;51.612;7.510;2023-08-12T05:12:48;24.67;;;22.37;;
1591;SDS011;789;51.612;7.510;2023-08-12T05:15:19;26.20;;;23.70;;
1591;SDS011;789;51.612;7.510;2023-08-12T05:17:46;23.93;;;21.77;;
1591;SDS011;789;51.612;7.510;2023-08-12T05:20:13;26.70;;;24.20;;
1591;SDS011;789;51.612;7.510;2023-08-12T05:22:41;25.57;;;23.27;;
1591;SDS011;789;51.612;7.510;2023-08-12T05:25:08;24.80;;;22.20;;
1591;SDS011;789;51.612;7.510;2023-08-12T05:27:35;26.43;;;23.83;;
1591;SDS011;789;51.612;7.510;2023-08-12T05:30:02;25.60;;;23.27;;
1591;SDS011;789;51.612;7.510;2023-08-12T05:32:29;25.50;;;23.10;;
1591;SDS011;789;51.612;7.510;2023-08-12T05:34:56;27.13;;;24.10;;
1591;SDS011;789;51.612;7.510;2023-08-12T05:37:23;24.87;;;22.67;;
1591;SDS011;789;51.612;7.510;2023-08-12T05:39:51;26.60;;;24.00;;
1591;SDS011;789;51.612;7.510;2023-08-12T05:42:18;26.27;;;23.50;;
1591;SDS011;789;51.612;7.510;2023-08-12T05:44:45;24.80;;;22.60;;
1591;SDS011;789;51.612;7.510;2023-08-12T05:47:12;24.27;;;21.97;;
1591;SDS011;789;51.612;7.510;2023-08-12T05:49:39;25.50;;;23.10;;
1591;SDS011;789;51.612;7.510;2023-08-12T05:52:07;23.63;;;21.50;;
1591;SDS011;789;51.612;7.510;2023-08-12T05:54:34;24.73;;;22.30;;
1591;SDS011;789;51.612;7.510;2023-08-12T05:57:02;25.90;;;23.60;;
1591;SDS011;789;51.612;7.510;2023-08-12T05:59:29;25.90;;;23.50;;
1591;SDS011;789;51.612;7.510;2023-08-12T06:01:56;26.00;;;23.70;;
1591;SDS011;789;51.612;7.510;2023-08-12T06:04:23;24.87;;;22.60;;
1591;SDS011;789;51.612;7.510;2023-08-12T06:06:49;24.70;;;22.40;;
1591;SDS011;789;51.612;7.510;2023-08-12T06:09:17;23.37;;;21.13;;
1591;SDS011;789;51.612;7.510;2023-08-12T06:11:43;23.97;;;21.77;;
1591;SDS011;789;51.612;7.510;2023-08-12T06:14:13;22.03;;;20.13;;
1591;SDS011;789;51.612;7.510;2023-08-12T06:16:40;21.87;;;19.67;;
1591;SDS011;789;51.612;7.510;2023-08-12T06:19:07;22.27;;;19.97;;
1591;SDS011;789;51.612;7.510;2023-08-12T06:21:34;22.43;;;20.43;;
1591;SDS011;789;51.612;7.510;2023-08-12T06:24:01;20.57;;;18.80;;
1591;SDS011;789;51.612;7.510;2023-08-12T06:26:28;19.60;;;17.93;;
1591;SDS011;789;51.612;7.510;2023-08-12T06:28:55;18.70;;;17.00;;
1591;SDS011;789;51.612;7.510;2023-08-12T06:31:23;18.30;;;16.70;;
1591;SDS011;789;51.612;7.510;2023-08-12T06:33:52;18.27;;;16.73;;
1591;SDS011;789;51.612;7.510;2023-08-12T06:36:19;18.97;;;17.20;;
1591;SDS011;789;51.612;7.510;2023-08-12T06:38:45;18.43;;;16.67;;
1591;SDS011;789;51.612;7.510;2023-08-12T06:41:12;18.83;;;16.10;;
1591;SDS011;789;51.612;7.510;2023-08-12T06:43:39;18.20;;;16.50;;
1591;SDS011;789;51.612;7.510;2023-08-12T06:46:07;16.23;;;14.70;;
1591;SDS011;789;51.612;7.510;2023-08-12T06:48:36;16.10;;;14.70;;
1591;SDS011;789;51.612;7.510;2023-08-12T06:51:03;14.90;;;13.60;;
1591;SDS011;789;51.612;7.510;2023-08-12T06:53:35;14.57;;;13.27;;
1591;SDS011;789;51.612;7.510;2023-08-12T06:56:02;15.10;;;13.80;;
1591;SDS011;789;51.612;7.510;2023-08-12T06:58:29;14.83;;;13.63;;
1591;SDS011;789;51.612;7.510;2023-08-12T07:00:56;14.17;;;13.10;;
1591;SDS011;789;51.612;7.510;2023-08-12T07:03:26;15.03;;;13.63;;
1591;SDS011;789;51.612;7.510;2023-08-12T07:05:54;14.57;;;12.83;;
1591;SDS011;789;51.612;7.510;2023-08-12T07:08:21;13.80;;;12.40;;
1591;SDS011;789;51.612;7.510;2023-08-12T07:10:48;12.73;;;11.73;;
1591;SDS011;789;51.612;7.510;2023-08-12T07:13:15;12.97;;;11.67;;
1591;SDS011;789;51.612;7.510;2023-08-12T07:15:42;13.60;;;10.30;;
1591;SDS011;789;51.612;7.510;2023-08-12T07:18:10;10.70;;;9.90;;
1591;SDS011;789;51.612;7.510;2023-08-12T07:20:37;13.00;;;11.57;;
1591;SDS011;789;51.612;7.510;2023-08-12T07:23:05;11.13;;;9.77;;
1591;SDS011;789;51.612;7.510;2023-08-12T07:25:32;10.80;;;9.33;;
1591;SDS011;789;51.612;7.510;2023-08-12T07:27:59;10.20;;;8.50;;
1591;SDS011;789;51.612;7.510;2023-08-12T07:30:26;12.87;;;8.87;;
1591;SDS011;789;51.612;7.510;2023-08-12T07:32:53;9.63;;;8.73;;
1591;SDS011;789;51.612;7.510;2023-08-12T07:35:22;9.90;;;9.00;;
1591;SDS011;789;51.612;7.510;2023-08-12T07:37:49;10.47;;;9.57;;
1591;SDS011;789;51.612;7.510;2023-08-12T07:40:17;10.80;;;9.90;;
1591;SDS011;789;51.612;7.510;2023-08-12T07:42:44;11.40;;;9.97;;
1591;SDS011;789;51.612;7.510;2023-08-12T07:45:13;11.57;;;10.57;;
1591;SDS011;789;51.612;7.510;2023-08-12T07:47:40;13.60;;;11.00;;
1591;SDS011;789;51.612;7.510;2023-08-12T07:50:07;10.13;;;9.23;;
1591;SDS011;789;51.612;7.510;2023-08-12T07:52:34;9.90;;;7.73;;
1591;SDS011;789;51.612;7.510;2023-08-12T07:55:01;9.50;;;8.40;;
1591;SDS011;789;51.612;7.510;2023-08-12T07:57:29;10.37;;;9.37;;
1591;SDS011;789;51.612;7.510;2023-08-12T07:59:56;9.03;;;8.00;;
1591;SDS011;789;51.612;7.510;2023-08-12T08:02:23;7.63;;;6.93;;
1591;SDS011;789;51.612;7.510;2023-08-12T08:04:50;10.63;;;7.63;;
1591;SDS011;789;51.612;7.510;2023-08-12T08:07:18;7.77;;;7.17;;
1591;SDS011;789;51.612;7.510;2023-08-12T08:09:46;11.93;;;9.13;;
1591;SDS011;789;51.612;7.510;2023-08-12T08:12:13;9.90;;;8.90;;
1591;SDS011;789;51.612;7.510;2023-08-12T08:14:41;8.53;;;7.73;;
1591;SDS011;789;51.612;7.510;2023-08-12T08:17:08;9.17;;;8.10;;
1591;SDS011;789;51.612;7.510;2023-08-12T08:19:38;7.80;;;7.00;;
1591;SDS011;789;51.612;7.510;2023-08-12T08:22:07;6.27;;;5.23;;
1591;SDS011;789;51.612;7.510;2023-08-12T08:24:34;8.07;;;5.30;;
1591;SDS011;789;51.612;7.510;2023-08-12T08:27:02;5.80;;;5.23;;
1591;SDS011;789;51.612;7.510;2023-08-12T08:29:30;5.93;;;5.30;;
1591;SDS011;789;51.612;7.510;2023-08-12T08:31:58;9.27;;;5.37;;
1591;SDS011;789;51.612;7.510;2023-08-12T08:34:25;8.67;;;5.67;;
1591;SDS011;789;51.612;7.510;2023-08-12T08:36:52;5.10;;;4.60;;
1591;SDS011;789;51.612;7.510;2023-08-12T08:39:19;5.23;;;4.73;;
1591;SDS011;789;51.612;7.510;2023-08-12T08:41:47;5.70;;;4.80;;
1591;SDS011;789;51.612;7.510;2023-08-12T08:44:15;6.80;;;5.90;;
1591;SDS011;789;51.612;7.510;2023-08-12T08:46:43;8.40;;;4.90;;
1591;SDS011;789;51.612;7.510;2023-08-12T08:49:13;7.00;;;4.57;;
1591;SDS011;789;51.612;7.510;2023-08-12T08:51:41;6.97;;;4.57;;
1591;SDS011;789;51.612;7.510;2023-08-12T08:54:09;7.83;;;6.07;;
1591;SDS011;789;51.612;7.510;2023-08-12T08:56:38;5.53;;;5.03;;
1591;SDS011;789;51.612;7.510;2023-08-12T08:59:05;5.63;;;4.67;;
1591;SDS011;789;51.612;7.510;2023-08-12T09:01:32;11.73;;;5.10;;
1591;SDS011;789;51.612;7.510;2023-08-12T09:04:04;4.27;;;3.70;;
1591;SDS011;789;51.612;7.510;2023-08-12T09:06:33;8.30;;;4.47;;
1591;SDS011;789;51.612;7.510;2023-08-12T09:09:03;9.10;;;5.50;;
1591;SDS011;789;51.612;7.510;2023-08-12T09:11:32;4.63;;;3.93;;
1591;SDS011;789;51.612;7.510;2023-08-12T09:14:03;6.30;;;3.90;;
1591;SDS011;789;51.612;7.510;2023-08-12T09:16:30;5.10;;;4.60;;
1591;SDS011;789;51.612;7.510;2023-08-12T09:18:57;5.00;;;4.23;;
1591;SDS011;789;51.612;7.510;2023-08-12T09:21:27;5.00;;;4.50;;
1591;SDS011;789;51.612;7.510;2023-08-12T09:23:56;10.53;;;4.83;;
1591;SDS011;789;51.612;7.510;2023-08-12T09:26:23;6.20;;;4.03;;
1591;SDS011;789;51.612;7.510;2023-08-12T09:28:50;9.23;;;4.50;;
1591;SDS011;789;51.612;7.510;2023-08-12T09:31:23;8.40;;;5.07;;
1591;SDS011;789;51.612;7.510;2023-08-12T09:33:51;5.73;;;5.13;;
1591;SDS011;789;51.612;7.510;2023-08-12T09:36:23;7.47;;;6.27;;
1591;SDS011;789;51.612;7.510;2023-08-12T09:38:50;5.83;;;5.00;;
1591;SDS011;789;51.612;7.510;2023-08-12T09:41:20;6.10;;;4.83;;
1591;SDS011;789;51.612;7.510;2023-08-12T09:43:48;5.93;;;5.27;;
1591;SDS011;789;51.612;7.510;2023-08-12T09:46:17;4.67;;;4.20;;
1591;SDS011;789;51.612;7.510;2023-08-12T09:48:48;5.70;;;5.00;;
1591;SDS011;789;51.612;7.510;2023-08-12T09:51:16;4.00;;;3.67;;
1591;SDS011;789;51.612;7.510;2023-08-12T09:53:43;4.17;;;3.80;;
1591;SDS011;789;51.612;7.510;2023-08-12T09:56:12;3.93;;;3.43;;
1591;SDS011;789;51.612;7.510;2023-08-12T09:58:44;4.20;;;3.80;;
1591;SDS011;789;51.612;7.510;2023-08-12T10:01:15;6.57;;;3.80;;
1591;SDS011;789;51.612;7.510;2023-08-12T10:03:44;4.13;;;3.73;;
1591;SDS011;789;51.612;7.510;2023-08-12T10:06:15;3.60;;;3.20;;
1591;SDS011;789;51.612;7.510;2023-08-12T10:08:42;8.03;;;3.80;;
1591;SDS011;789;51.612;7.510;2023-08-12T10:11:09;3.57;;;3.17;;
1591;SDS011;789;51.612;7.510;2023-08-12T10:13:37;3.90;;;3.60;;
1591;SDS011;789;51.612;7.510;2023-08-12T10:16:06;3.30;;;3.10;;
1591;SDS011;789;51.612;7.510;2023-08-12T10:18:34;3.10;;;2.80;;
1591;SDS011;789;51.612;7.510;2023-08-12T10:21:02;3.50;;;3.27;;
1591;SDS011;789;51.612;7.510;2023-08-12T10:23:31;3.80;;;3.53;;
1591;SDS011;789;51.612;7.510;2023-08-12T10:25:59;4.07;;;3.30;;
1591;SDS011;789;51.612;7.510;2023-08-12T10:28:29;3.40;;;3.03;;
1591;SDS011;789;51.612;7.510;2023-08-12T10:30:56;3.60;;;3.30;;
1591;SDS011;789;51.612;7.510;2023-08-12T10:33:25;4.23;;;2.93;;
1591;SDS011;789;51.612;7.510;2023-08-12T10:35:52;3.07;;;2.87;;
1591;SDS011;789;51.612;7.510;2023-08-12T10:38:22;3.20;;;3.00;;
1591;SDS011;789;51.612;7.510;2023-08-12T10:40:51;3.43;;;2.93;;
1591;SDS011;789;51.612;7.510;2023-08-12T10:43:19;3.13;;;2.30;;
1591;SDS011;789;51.612;7.510;2023-08-12T10:45:46;2.60;;;2.40;;
1591;SDS011;789;51.612;7.510;2023-08-12T10:48:18;2.70;;;2.50;;
1591;SDS011;789;51.612;7.510;2023-08-12T10:50:49;5.50;;;2.50;;
1591;SDS011;789;51.612;7.510;2023-08-12T10:53:20;2.80;;;2.30;;
1591;SDS011;789;51.612;7.510;2023-08-12T10:55:54;3.97;;;2.47;;
1591;SDS011;789;51.612;7.510;2023-08-12T10:58:26;2.47;;;2.10;;
1591;SDS011;789;51.612;7.510;2023-08-12T11:00:54;2.20;;;2.10;;
1591;SDS011;789;51.612;7.510;2023-08-12T11:03:22;2.93;;;2.10;;
1591;SDS011;789;51.612;7.510;2023-08-12T11:05:50;2.10;;;2.00;;
1591;SDS011;789;51.612;7.510;2023-08-12T11:08:24;2.43;;;2.23;;
1591;SDS011;789;51.612;7.510;2023-08-12T11:10:53;2.27;;;2.07;;
1591;SDS011;789;51.612;7.510;2023-08-12T11:13:22;3.67;;;2.13;;
1591;SDS011;789;51.612;7.510;2023-08-12T11:15:53;2.50;;;2.30;;
1591;SDS011;789;51.612;7.510;2023-08-12T11:18:32;3.07;;;2.30;;
1591;SDS011;789;51.612;7.510;2023-08-12T11:21:01;2.20;;;2.00;;
1591;SDS011;789;51.612;7.510;2023-08-12T11:23:28;2.87;;;2.40;;
1591;SDS011;789;51.612;7.510;2023-08-12T11:25:57;2.83;;;2.00;;
1591;SDS011;789;51.612;7.510;2023-08-12T11:28:24;2.43;;;2.10;;
1591;SDS011;789;51.612;7.510;2023-08-12T11:30:51;2.17;;;1.97;;
1591;SDS011;789;51.612;7.510;2023-08-12T11:33:18;2.93;;;2.63;;
1591;SDS011;789;51.612;7.510;2023-08-12T11:35:46;2.37;;;2.03;;
1591;SDS011;789;51.612;7.510;2023-08-12T11:38:15;2.20;;;2.00;;
1591;SDS011;789;51.612;7.510;2023-08-12T11:40:42;4.57;;;2.47;;
1591;SDS011;789;51.612;7.510;2023-08-12T11:43:09;2.37;;;2.17;;
1591;SDS011;789;51.612;7.510;2023-08-12T11:45:36;2.37;;;2.03;;
1591;SDS011;789;51.612;7.510;2023-08-12T11:48:03;2.47;;;1.70;;
1591;SDS011;789;51.612;7.510;2023-08-12T11:50:31;2.03;;;1.67;;
1591;SDS011;789;51.612;7.510;2023-08-12T11:52:58;1.83;;;1.73;;
1591;SDS011;789;51.612;7.510;2023-08-12T11:55:26;2.70;;;2.10;;
1591;SDS011;789;51.612;7.510;2023-08-12T11:57:53;1.90;;;1.70;;
1591;SDS011;789;51.612;7.510;2023-08-12T12:00:20;1.77;;;1.60;;
1591;SDS011;789;51.612;7.510;2023-08-12T12:02:51;2.23;;;1.80;;
1591;SDS011;789;51.612;7.510;2023-08-12T12:05:21;1.43;;;1.33;;
1591;SDS011;789;51.612;7.510;2023-08-12T12:07:52;1.33;;;1.23;;
1591;SDS011;789;51.612;7.510;2023-08-12T12:10:19;1.20;;;1.10;;
1591;SDS011;789;51.612;7.510;2023-08-12T12:12:49;1.40;;;1.30;;
1591;SDS011;789;51.612;7.510;2023-08-12T12:15:16;1.40;;;1.30;;
1591;SDS011;789;51.612;7.510;2023-08-12T12:17:44;1.87;;;1.30;;
1591;SDS011;789;51.612;7.510;2023-08-12T12:20:15;3.50;;;1.30;;
1591;SDS011;789;51.612;7.510;2023-08-12T12:22:42;1.40;;;1.30;;
1591;SDS011;789;51.612;7.510;2023-08-12T12:25:10;1.77;;;1.37;;
1591;SDS011;789;51.612;7.510;2023-08-12T12:27:39;1.20;;;1.10;;
1591;SDS011;789;51.612;7.510;2023-08-12T12:30:09;1.53;;;1.43;;
1591;SDS011;789;51.612;7.510;2023-08-12T12:32:37;2.00;;;1.37;;
1591;SDS011;789;51.612;7.510;2023-08-12T12:35:07;2.30;;;1.80;;
1591;SDS011;789;51.612;7.510;2023-08-12T12:37:34;1.43;;;1.33;;
1591;SDS011;789;51.612;7.510;2023-08-12T12:40:02;1.40;;;1.30;;
1591;SDS011;789;51.612;7.510;2023-08-12T12:42:32;1.37;;;1.27;;
1591;SDS011;789;51.612;7.510;2023-08-12T12:44:59;1.57;;;1.17;;
1591;SDS011;789;51.612;7.510;2023-08-12T12:47:27;1.50;;;1.40;;
1591;SDS011;789;51.612;7.510;2023-08-12T12:49:53;1.67;;;1.20;;
1591;SDS011;789;51.612;7.510;2023-08-12T12:52:20;1.20;;;1.10;;
1591;SDS011;789;51.612;7.510;2023-08-12T12:54:47;2.77;;;1.17;;
1591;SDS011;789;51.612;7.510;2023-08-12T12:57:14;2.03;;;1.20;;
1591;SDS011;789;51.612;7.510;2023-08-12T12:59:43;2.97;;;1.30;;
1591;SDS011;789;51.612;7.510;2023-08-12T13:02:09;1.60;;;1.37;;
1591;SDS011;789;51.612;7.510;2023-08-12T13:04:38;1.43;;;1.33;;
1591;SDS011;789;51.612;7.510;2023-08-12T13:07:05;1.50;;;1.13;;
1591;SDS011;789;51.612;7.510;2023-08-12T13:09:32;1.40;;;1.30;;
1591;SDS011;789;51.612;7.510;2023-08-12T13:11:58;1.60;;;1.50;;
1591;SDS011;789;51.612;7.510;2023-08-12T13:14:25;2.43;;;1.70;;
1591;SDS011;789;51.612;7.510;2023-08-12T13:16:54;3.30;;;1.70;;
1591;SDS011;789;51.612;7.510;2023-08-12T13:19:20;5.37;;;1.67;;
1591;SDS011;789;51.612;7.510;2023-08-12T13:21:49;5.50;;;3.07;;
1591;SDS011;789;51.612;7.510;2023-08-12T13:24:15;3.73;;;3.00;;
1591;SDS011;789;51.612;7.510;2023-08-12T13:26:42;4.30;;;3.90;;
1591;SDS011;789;51.612;7.510;2023-08-12T13:29:12;5.60;;;4.13;;
1591;SDS011;789;51.612;7.510;2023-08-12T13:31:39;4.40;;;4.00;;
1591;SDS011;789;51.612;7.510;2023-08-12T13:34:06;4.03;;;3.63;;
1591;SDS011;789;51.612;7.510;2023-08-12T13:36:32;4.70;;;4.30;;
1591;SDS011;789;51.612;7.510;2023-08-12T13:39:01;4.83;;;4.43;;
1591;SDS011;789;51.612;7.510;2023-08-12T13:41:27;5.30;;;4.90;;
1591;SDS011;789;51.612;7.510;2023-08-12T13:43:54;5.10;;;4.70;;
1591;SDS011;789;51.612;7.510;2023-08-12T13:46:21;5.70;;;5.30;;
1591;SDS011;789;51.612;7.510;2023-08-12T13:48:47;5.57;;;5.17;;
1591;SDS011;789;51.612;7.510;2023-08-12T13:51:14;6.60;;;6.10;;
1591;SDS011;789;51.612;7.510;2023-08-12T13:53:41;5.80;;;5.30;;
1591;SDS011;789;51.612;7.510;2023-08-12T13:56:09;5.97;;;5.43;;
1591;SDS011;789;51.612;7.510;2023-08-12T13:58:36;6.10;;;5.47;;
1591;SDS011;789;51.612;7.510;2023-08-12T14:01:03;5.90;;;5.50;;
1591;SDS011;789;51.612;7.510;2023-08-12T14:03:30;7.70;;;5.63;;
1591;SDS011;789;51.612;7.510;2023-08-12T14:05:57;6.23;;;5.73;;
1591;SDS011;789;51.612;7.510;2023-08-12T14:08:24;6.10;;;5.60;;
1591;SDS011;789;51.612;7.510;2023-08-12T14:10:51;7.03;;;6.30;;
1591;SDS011;789;51.612;7.510;2023-08-12T14:13:19;8.53;;;7.73;;
1591;SDS011;789;51.612;7.510;2023-08-12T14:15:46;7.13;;;6.53;;
1591;SDS011;789;51.612;7.510;2023-08-12T14:18:13;6.70;;;6.20;;
1591;SDS011;789;51.612;7.510;2023-08-12T14:20:40;7.17;;;6.67;;
1591;SDS011;789;51.612;7.510;2023-08-12T14:23:07;7.03;;;6.53;;
1591;SDS011;789;51.612;7.510;2023-08-12T14:25:34;7.70;;;7.00;;
1591;SDS011;789;51.612;7.510;2023-08-12T14:28:01;9.13;;;7.30;;
1591;SDS011;789;51.612;7.510;2023-08-12T14:30:29;9.53;;;8.63;;
1591;SDS011;789;51.612;7.510;2023-08-12T14:32:56;8.23;;;7.63;;
1591;SDS011;789;51.612;7.510;2023-08-12T14:35:24;9.20;;;8.60;;
1591;SDS011;789;51.612;7.510;2023-08-12T14:37:50;9.63;;;8.93;;
1591;SDS011;789;51.612;7.510;2023-08-12T14:40:17;10.37;;;9.57;;
1591;SDS011;789;51.612;7.510;2023-08-12T14:42:44;11.30;;;10.30;;
1591;SDS011;789;51.612;7.510;2023-08-12T14:45:11;11.70;;;10.60;;
1591;SDS011;789;51.612;7.510;2023-08-12T14:47:39;12.73;;;11.53;;
1591;SDS011;789;51.612;7.510;2023-08-12T14:50:08;11.50;;;10.53;;
1591;SDS011;789;51.612;7.510;2023-08-12T14:52:35;11.77;;;10.87;;
1591;SDS011;789;51.612;7.510;2023-08-12T14:55:02;9.73;;;8.93;;
1591;SDS011;789;51.612;7.510;2023-08-12T14:57:30;9.33;;;8.63;;
1591;SDS011;789;51.612;7.510;2023-08-12T14:59:56;8.00;;;7.40;;
1591;SDS011;789;51.612;7.510;2023-08-12T15:02:23;7.70;;;7.10;;
1591;SDS011;789;51.612;7.510;2023-08-12T15:04:52;7.23;;;6.63;;
1591;SDS011;789;51.612;7.510;2023-08-12T15:07:19;7.23;;;6.60;;
1591;SDS011;789;51.612;7.510;2023-08-12T15:09:47;6.10;;;5.70;;
1591;SDS011;789;51.612;7.510;2023-08-12T15:12:16;6.27;;;5.70;;
1591;SDS011;789;51.612;7.510;2023-08-12T15:14:43;6.57;;;6.07;;
1591;SDS011;789;51.612;7.510;2023-08-12T15:17:10;5.80;;;5.30;;
1591;SDS011;789;51.612;7.510;2023-08-12T15:19:37;6.30;;;5.80;;